Time;durP1;ratioP1;P1;durP2;ratioP2;P2;SDS_P1;SDS_P2;PMS_P1;PMS_P2;Temp;Humidity;BMP_temperature;BMP_pressure;BME280_temperature;BME280_humidity;BME280_pressure;Samples;Min_cycle;Max_cycle;Signal;HPM_P1;HPM_P2
2024/01/30 00:02:22;;;;;;;21.33;10.55;;;3.60;1.00;;;;;;6243057;23;20187;-87
2024/01/30 00:04:49;;;;;;;14.18;8.95;;;3.20;1.00;;;;;;6225843;23;20262;-88
2024/01/30 00:07:23;;;;;;;11.77;8.88;;;3.30;1.00;;;;;;6224819;23;20202;-88
2024/01/30 00:09:50;;;;;;;10.40;8.00;;;3.20;1.00;;;;;;6225777;23;20502;-86
2024/01/30 00:12:19;;;;;;;15.20;9.65;;;3.10;1.00;;;;;;6242232;23;20178;-86
2024/01/30 00:14:49;;;;;;;12.63;9.15;;;3.20;1.00;;;;;;6239179;23;20174;-87
2024/01/30 00:17:16;;;;;;;25.50;16.10;;;3.30;1.00;;;;;;6245726;23;20155;-86
2024/01/30 00:19:46;;;;;;;15.00;10.02;;;3.30;1.00;;;;;;6237043;23;20175;-87
2024/01/30 00:22:13;;;;;;;12.40;9.30;;;3.20;1.00;;;;;;6229869;23;20175;-87
2024/01/30 00:24:40;;;;;;;12.60;8.30;;;3.20;1.00;;;;;;6224803;23;20175;-87
2024/01/30 00:27:12;;;;;;;12.10;8.00;;;3.10;1.00;;;;;;6223955;23;20262;-88
2024/01/30 00:29:40;;;;;;;17.33;10.68;;;3.20;1.00;;;;;;6224538;23;20231;-89
2024/01/30 00:32:07;;;;;;;13.82;7.78;;;3.30;1.00;;;;;;6229888;23;20179;-87
2024/01/30 00:34:34;;;;;;;8.32;7.47;;;3.40;1.00;;;;;;6244648;23;20202;-87
2024/01/30 00:37:01;;;;;;;14.05;8.40;;;3.30;1.00;;;;;;6237499;23;20178;-89
2024/01/30 00:39:28;;;;;;;10.40;7.68;;;3.30;1.00;;;;;;6238891;23;20191;-89
2024/01/30 00:41:55;;;;;;;11.32;8.15;;;3.20;1.00;;;;;;6235001;23;20573;-88
2024/01/30 00:44:22;;;;;;;13.43;9.27;;;3.20;1.00;;;;;;6224594;23;20234;-88
2024/01/30 00:46:57;;;;;;;9.63;7.80;;;3.40;1.00;;;;;;6225574;23;20194;-88
2024/01/30 00:49:24;;;;;;;13.35;9.00;;;3.20;1.00;;;;;;6226311;23;20191;-88
2024/01/30 00:51:51;;;;;;;10.18;8.05;;;3.20;1.00;;;;;;6230021;23;20175;-88
2024/01/30 00:54:18;;;;;;;8.48;7.07;;;3.00;1.00;;;;;;6245202;23;20155;-86
2024/01/30 00:56:46;;;;;;;10.23;7.53;;;3.10;1.00;;;;;;6245207;23;20171;-88
2024/01/30 00:59:13;;;;;;;13.02;8.43;;;3.10;1.00;;;;;;6230522;23;20525;-88
2024/01/30 01:01:40;;;;;;;11.25;8.23;;;3.10;1.00;;;;;;6226243;23;20167;-90
2024/01/30 01:04:09;;;;;;;12.02;7.93;;;3.30;1.00;;;;;;6226127;23;20186;-88
2024/01/30 01:06:36;;;;;;;10.50;7.07;;;3.10;1.00;;;;;;6223632;23;20175;-88
2024/01/30 01:09:04;;;;;;;9.93;8.27;;;3.20;1.00;;;;;;6224347;23;20199;-89
2024/01/30 01:11:35;;;;;;;9.65;7.10;;;3.10;1.00;;;;;;6225802;23;20195;-88
2024/01/30 01:14:05;;;;;;;11.90;8.70;;;3.00;1.00;;;;;;6235822;23;20167;-88
2024/01/30 01:16:32;;;;;;;11.25;8.50;;;3.70;1.00;;;;;;6222812;23;20211;-87
2024/01/30 01:19:00;;;;;;;9.70;8.23;;;3.00;1.00;;;;;;6228282;23;20197;-87
2024/01/30 01:21:28;;;;;;;12.90;9.50;;;3.00;1.00;;;;;;6225254;23;20183;-87
2024/01/30 01:23:55;;;;;;;15.43;10.45;;;2.90;1.00;;;;;;6244061;23;20163;-85
2024/01/30 01:26:24;;;;;;;15.13;10.18;;;2.90;1.00;;;;;;6245232;23;20193;-87
2024/01/30 01:28:51;;;;;;;16.55;9.38;;;2.90;1.00;;;;;;6241259;23;20202;-85
2024/01/30 01:31:18;;;;;;;18.25;9.63;;;2.80;1.00;;;;;;6255162;23;20182;-86
2024/01/30 01:33:45;;;;;;;16.13;9.70;;;2.60;1.00;;;;;;6265647;23;20671;-86
2024/01/30 01:36:12;;;;;;;14.95;10.23;;;2.60;1.00;;;;;;6250995;23;20253;-85
2024/01/30 01:38:40;;;;;;;14.63;10.20;;;2.40;1.00;;;;;;6250724;23;20706;-85
2024/01/30 01:41:07;;;;;;;13.52;10.45;;;2.50;1.70;;;;;;6250877;23;20667;-86
2024/01/30 01:43:34;;;;;;;16.70;10.70;;;2.50;1.00;;;;;;6252118;23;20341;-86
2024/01/30 01:46:01;;;;;;;12.35;9.60;;;2.50;1.00;;;;;;6251284;23;20214;-85
2024/01/30 01:48:28;;;;;;;13.45;10.00;;;2.40;1.00;;;;;;6251837;23;20277;-85
2024/01/30 01:50:55;;;;;;;13.25;9.68;;;2.30;1.00;;;;;;6273938;23;20209;-85
2024/01/30 01:53:22;;;;;;;15.45;10.23;;;2.20;4.90;;;;;;6274679;22;20159;-85
2024/01/30 01:55:52;;;;;;;15.65;9.55;;;2.20;20.00;;;;;;6271344;23;20178;-85
2024/01/30 01:58:22;;;;;;;11.85;9.57;;;2.20;67.50;;;;;;6271666;23;20189;-86
2024/01/30 02:00:49;;;;;;;11.20;7.90;;;2.10;44.70;;;;;;6271104;23;20175;-86
2024/01/30 02:03:18;;;;;;;14.43;10.10;;;2.10;87.00;;;;;;6268191;23;20186;-86
2024/01/30 02:05:46;;;;;;;11.82;9.63;;;2.20;52.80;;;;;;6271559;23;20162;-86
2024/01/30 02:08:13;;;;;;;14.50;9.68;;;2.10;64.60;;;;;;6272885;23;20193;-86
2024/01/30 02:10:40;;;;;;;14.25;9.50;;;2.20;99.90;;;;;;6266242;23;20198;-85
2024/01/30 02:13:08;;;;;;;13.68;9.52;;;2.30;88.00;;;;;;6266197;23;20179;-86
2024/01/30 02:15:35;;;;;;;12.02;8.50;;;2.20;35.90;;;;;;6264011;23;20186;-86
2024/01/30 02:18:02;;;;;;;10.30;7.28;;;2.40;88.30;;;;;;6260973;23;20205;-86
2024/01/30 02:20:31;;;;;;;17.50;9.40;;;2.40;1.00;;;;;;6263358;23;20174;-86
2024/01/30 02:23:01;;;;;;;13.52;9.02;;;2.50;1.00;;;;;;6274075;23;20217;-86
2024/01/30 02:25:32;;;;;;;11.38;8.00;;;2.50;1.00;;;;;;6274782;22;20163;-85
2024/01/30 02:27:59;;;;;;;10.80;8.63;;;2.50;1.00;;;;;;6273634;22;20258;-86
2024/01/30 02:30:26;;;;;;;11.82;8.98;;;2.40;1.00;;;;;;6256789;23;20224;-86
2024/01/30 02:32:53;;;;;;;10.95;8.20;;;2.50;1.00;;;;;;6256319;23;20201;-86
2024/01/30 02:35:19;;;;;;;11.95;8.30;;;2.50;1.00;;;;;;6261022;23;20228;-86
2024/01/30 02:37:46;;;;;;;11.73;8.15;;;2.50;1.00;;;;;;6260424;23;20175;-86
2024/01/30 02:40:15;;;;;;;8.95;8.05;;;2.50;1.00;;;;;;6258327;23;20178;-86
2024/01/30 02:42:42;;;;;;;9.10;8.02;;;2.60;1.00;;;;;;6257794;23;20178;-86
2024/01/30 02:45:10;;;;;;;10.93;8.25;;;2.60;1.00;;;;;;6253825;23;20181;-86
2024/01/30 02:47:37;;;;;;;12.25;7.78;;;2.70;1.00;;;;;;6252933;23;20178;-86
2024/01/30 02:50:04;;;;;;;13.07;8.02;;;2.80;1.00;;;;;;6250717;23;20273;-86
2024/01/30 02:52:31;;;;;;;11.38;8.90;;;2.70;1.00;;;;;;6252915;23;20178;-85
2024/01/30 02:54:58;;;;;;;12.05;8.20;;;2.60;1.00;;;;;;6250046;23;20212;-85
2024/01/30 02:57:26;;;;;;;13.48;9.38;;;2.70;1.00;;;;;;6259043;22;20170;-85
2024/01/30 02:59:53;;;;;;;11.60;9.45;;;2.70;1.00;;;;;;6264096;22;20181;-85
2024/01/30 03:02:22;;;;;;;10.13;8.77;;;2.60;1.00;;;;;;6273298;22;20181;-85
2024/01/30 03:04:49;;;;;;;9.40;8.45;;;2.70;1.00;;;;;;6271607;23;20171;-85
2024/01/30 03:07:16;;;;;;;10.57;7.70;;;2.80;1.00;;;;;;6273424;22;20175;-85
2024/01/30 03:09:43;;;;;;;13.48;9.50;;;2.80;1.00;;;;;;6271736;23;20205;-85
2024/01/30 03:12:10;;;;;;;13.32;8.20;;;2.70;1.00;;;;;;6270942;23;20174;-85
2024/01/30 03:14:38;;;;;;;10.40;8.57;;;2.80;1.00;;;;;;6274489;22;20165;-85
2024/01/30 03:17:05;;;;;;;12.82;8.60;;;2.70;1.00;;;;;;6274491;22;20174;-85
2024/01/30 03:19:32;;;;;;;9.68;8.45;;;2.70;1.00;;;;;;6274475;22;20178;-85
2024/01/30 03:21:59;;;;;;;11.63;8.52;;;2.60;1.00;;;;;;6274089;22;20177;-85
2024/01/30 03:24:26;;;;;;;10.80;8.90;;;2.60;1.00;;;;;;6274790;22;20169;-85
2024/01/30 03:26:54;;;;;;;11.25;9.27;;;2.60;1.00;;;;;;6273686;22;20158;-86
2024/01/30 03:29:21;;;;;;;12.43;8.20;;;2.50;1.00;;;;;;6274326;22;20198;-86
2024/01/30 03:31:50;;;;;;;10.75;9.13;;;2.30;1.00;;;;;;6263206;23;20217;-85
2024/01/30 03:34:16;;;;;;;13.20;9.30;;;2.30;28.00;;;;;;6272122;23;20179;-85
2024/01/30 03:36:43;;;;;;;13.00;10.70;;;2.30;46.20;;;;;;6268814;23;20209;-85
2024/01/30 03:39:10;;;;;;;12.75;9.25;;;2.20;55.90;;;;;;6265995;23;20194;-86
2024/01/30 03:41:37;;;;;;;12.70;7.93;;;2.30;73.80;;;;;;6271282;23;20497;-86
2024/01/30 03:44:04;;;;;;;12.93;8.15;;;2.20;87.70;;;;;;6275187;22;20162;-85
2024/01/30 03:46:31;;;;;;;10.15;8.30;;;2.20;97.70;;;;;;6273988;23;20178;-86
2024/01/30 03:48:59;;;;;;;10.70;8.35;;;2.20;99.90;;;;;;6273286;23;20198;-85
2024/01/30 03:51:26;;;;;;;13.18;8.60;;;2.20;98.90;;;;;;6273904;23;20202;-85
2024/01/30 03:53:53;;;;;;;13.18;9.18;;;2.30;94.90;;;;;;6266826;23;20185;-85
2024/01/30 03:56:20;;;;;;;9.50;8.00;;;2.30;99.80;;;;;;6263879;23;20178;-85
2024/01/30 03:58:47;;;;;;;17.15;10.18;;;2.30;99.90;;;;;;6254466;23;20234;-86
2024/01/30 04:01:16;;;;;;;13.38;8.60;;;2.30;99.90;;;;;;6266306;23;20181;-85
2024/01/30 04:03:44;;;;;;;13.70;8.93;;;2.30;99.90;;;;;;6254894;23;20171;-86
2024/01/30 04:06:13;;;;;;;11.93;9.80;;;2.20;99.90;;;;;;6254527;23;20522;-86
2024/01/30 04:08:39;;;;;;;11.65;9.88;;;2.20;99.90;;;;;;6255430;23;20253;-86
2024/01/30 04:11:06;;;;;;;11.95;9.32;;;2.20;99.90;;;;;;6252703;23;20278;-86
2024/01/30 04:13:33;;;;;;;13.70;9.18;;;2.30;99.90;;;;;;6252727;23;20551;-86
2024/01/30 04:16:01;;;;;;;14.10;8.98;;;2.30;99.90;;;;;;6270156;22;20163;-85
2024/01/30 04:18:28;;;;;;;11.43;9.57;;;2.30;99.90;;;;;;6272386;22;20202;-84
2024/01/30 04:20:55;;;;;;;11.43;8.65;;;2.30;99.90;;;;;;6271713;23;20175;-84
2024/01/30 04:23:24;;;;;;;8.90;8.00;;;2.30;99.90;;;;;;6272750;23;20198;-83
2024/01/30 04:25:51;;;;;;;13.73;9.07;;;2.30;99.90;;;;;;6275034;22;20170;-85
2024/01/30 04:28:18;;;;;;;13.52;8.75;;;2.30;99.90;;;;;;6272293;23;20206;-86
2024/01/30 04:30:44;;;;;;;10.45;9.25;;;2.30;99.90;;;;;;6265627;23;20683;-85
2024/01/30 04:33:12;;;;;;;12.68;9.43;;;2.30;99.90;;;;;;6253338;23;20253;-85
2024/01/30 04:35:39;;;;;;;13.30;8.88;;;2.40;99.90;;;;;;6250782;23;20179;-86
2024/01/30 04:38:05;;;;;;;13.60;9.25;;;2.50;99.90;;;;;;6250554;23;20233;-86
2024/01/30 04:40:33;;;;;;;10.23;9.07;;;2.40;99.90;;;;;;6250648;23;20181;-85
2024/01/30 04:43:00;;;;;;;12.77;10.30;;;2.40;99.90;;;;;;6251166;23;20564;-86
2024/01/30 04:45:27;;;;;;;15.02;9.65;;;2.50;99.90;;;;;;6250315;23;20201;-86
2024/01/30 04:47:54;;;;;;;13.73;10.30;;;2.50;99.90;;;;;;6249914;23;20269;-86
2024/01/30 04:50:21;;;;;;;15.95;8.98;;;2.60;99.90;;;;;;6249478;23;20201;-86
2024/01/30 04:52:48;;;;;;;14.50;10.23;;;2.50;99.90;;;;;;6250062;23;20571;-86
2024/01/30 04:55:15;;;;;;;13.40;10.15;;;2.50;71.80;;;;;;6252048;23;20178;-86
2024/01/30 04:57:43;;;;;;;10.68;9.35;;;2.40;99.90;;;;;;6256781;23;20230;-86
2024/01/30 05:00:11;;;;;;;12.85;8.70;;;2.30;99.90;;;;;;6259666;23;20206;-87
2024/01/30 05:02:38;;;;;;;10.70;9.20;;;2.40;99.90;;;;;;6259239;23;20179;-87
2024/01/30 05:05:05;;;;;;;11.05;9.27;;;2.40;99.90;;;;;;6274355;23;20184;-85
2024/01/30 05:07:32;;;;;;;15.13;9.65;;;2.40;99.90;;;;;;6274476;22;20166;-85
2024/01/30 05:09:59;;;;;;;14.02;10.18;;;2.40;99.90;;;;;;6272301;23;20189;-85
2024/01/30 05:12:26;;;;;;;11.57;8.43;;;2.50;99.90;;;;;;6261444;23;20198;-86
2024/01/30 05:14:55;;;;;;;15.18;10.40;;;2.60;99.90;;;;;;6260965;23;20269;-86
2024/01/30 05:17:21;;;;;;;17.45;9.90;;;2.60;99.90;;;;;;6251742;23;20179;-86
2024/01/30 05:19:48;;;;;;;11.00;9.25;;;2.50;99.90;;;;;;6250387;23;20274;-86
2024/01/30 05:22:17;;;;;;;14.75;10.52;;;2.40;99.90;;;;;;6250268;23;20497;-86
2024/01/30 05:24:44;;;;;;;14.80;10.98;;;2.40;99.90;;;;;;6250994;23;20179;-86
2024/01/30 05:27:13;;;;;;;14.48;10.15;;;2.50;99.90;;;;;;6250051;23;20210;-86
2024/01/30 05:29:40;;;;;;;12.30;9.77;;;2.50;99.90;;;;;;6249067;23;20281;-86
2024/01/30 05:32:08;;;;;;;13.55;9.60;;;2.50;99.90;;;;;;6249701;23;20680;-85
2024/01/30 05:34:37;;;;;;;14.45;9.90;;;2.50;99.90;;;;;;6250081;23;20648;-86
2024/01/30 05:37:04;;;;;;;9.93;8.45;;;2.40;99.90;;;;;;6251040;23;20197;-86
2024/01/30 05:39:32;;;;;;;13.88;10.20;;;2.50;99.90;;;;;;6266381;23;20230;-86
2024/01/30 05:41:59;;;;;;;14.50;11.02;;;2.50;99.90;;;;;;6274711;22;20229;-85
2024/01/30 05:44:26;;;;;;;14.90;10.10;;;2.50;99.90;;;;;;6274626;22;20173;-86
2024/01/30 05:46:53;;;;;;;15.43;10.45;;;2.60;99.90;;;;;;6272268;23;20178;-86
2024/01/30 05:49:21;;;;;;;13.80;10.00;;;2.60;99.90;;;;;;6254246;23;20206;-86
2024/01/30 05:51:48;;;;;;;18.25;10.55;;;2.50;99.90;;;;;;6257970;23;20209;-86
2024/01/30 05:54:15;;;;;;;13.32;9.80;;;2.50;99.90;;;;;;6270001;22;20171;-86
2024/01/30 05:56:42;;;;;;;10.68;8.77;;;2.50;99.90;;;;;;6268335;22;20201;-86
2024/01/30 05:59:09;;;;;;;15.68;9.93;;;2.50;99.90;;;;;;6250371;23;20734;-86
2024/01/30 06:01:36;;;;;;;11.75;9.07;;;2.50;99.90;;;;;;6250549;23;20206;-86
2024/01/30 06:04:03;;;;;;;12.80;10.10;;;2.60;99.90;;;;;;6250497;23;20174;-86
2024/01/30 06:06:31;;;;;;;15.88;8.80;;;2.60;99.90;;;;;;6256932;23;20198;-86
2024/01/30 06:08:58;;;;;;;15.82;10.57;;;2.60;99.90;;;;;;6251540;23;20225;-86
2024/01/30 06:11:25;;;;;;;11.88;9.13;;;2.60;99.90;;;;;;6250323;23;20217;-86
2024/01/30 06:13:51;;;;;;;12.10;9.63;;;2.60;99.90;;;;;;6250362;23;20206;-86
2024/01/30 06:16:20;;;;;;;15.75;9.90;;;2.40;99.90;;;;;;6250016;23;20201;-87
2024/01/30 06:18:47;;;;;;;17.45;10.52;;;2.30;99.90;;;;;;6265099;23;20228;-87
2024/01/30 06:21:14;;;;;;;11.93;9.55;;;2.30;99.90;;;;;;6262993;23;20174;-87
2024/01/30 06:23:43;;;;;;;12.43;10.60;;;2.20;99.90;;;;;;6268900;23;20217;-86
2024/01/30 06:26:10;;;;;;;18.55;11.25;;;2.20;99.90;;;;;;6269958;23;20212;-85
2024/01/30 06:28:37;;;;;;;11.60;9.82;;;2.30;99.90;;;;;;6272878;22;20187;-84
2024/01/30 06:31:04;;;;;;;16.02;9.68;;;2.30;99.90;;;;;;6266350;23;20217;-85
2024/01/30 06:33:30;;;;;;;14.60;10.93;;;2.40;99.90;;;;;;6266206;23;20185;-85
2024/01/30 06:35:57;;;;;;;17.20;9.80;;;2.40;99.90;;;;;;6268168;23;20212;-85
2024/01/30 06:38:24;;;;;;;13.30;9.55;;;2.40;99.90;;;;;;6269598;23;20198;-84
2024/01/30 06:40:52;;;;;;;14.95;10.20;;;2.40;99.90;;;;;;6269963;23;20174;-84
2024/01/30 06:43:19;;;;;;;22.77;12.95;;;2.40;99.90;;;;;;6269370;22;20201;-85
2024/01/30 06:45:46;;;;;;;14.75;9.85;;;2.40;99.90;;;;;;6260749;23;20178;-85
2024/01/30 06:48:14;;;;;;;12.25;9.93;;;2.60;99.90;;;;;;6257822;23;20198;-85
2024/01/30 06:50:41;;;;;;;19.63;11.98;;;2.50;99.90;;;;;;6254405;23;20209;-84
2024/01/30 06:53:08;;;;;;;11.82;9.90;;;2.50;99.90;;;;;;6251569;23;20216;-85
2024/01/30 06:55:37;;;;;;;17.80;10.30;;;2.50;99.90;;;;;;6250846;23;20217;-85
2024/01/30 06:58:06;;;;;;;16.48;11.25;;;2.40;99.90;;;;;;6251123;23;20195;-85
2024/01/30 07:00:33;;;;;;;23.50;12.85;;;2.40;99.90;;;;;;6250850;23;20257;-85
2024/01/30 07:03:01;;;;;;;15.95;11.10;;;2.50;99.90;;;;;;6250761;23;20174;-85
2024/01/30 07:05:28;;;;;;;12.88;11.30;;;2.60;99.90;;;;;;6250122;23;20182;-85
2024/01/30 07:07:55;;;;;;;17.10;12.35;;;2.70;99.90;;;;;;6249948;23;20228;-85
2024/01/30 07:10:22;;;;;;;15.50;11.00;;;2.70;99.90;;;;;;6249505;23;20544;-85
2024/01/30 07:12:49;;;;;;;15.88;11.90;;;2.80;99.90;;;;;;6250580;23;20198;-85
2024/01/30 07:15:20;;;;;;;20.80;11.77;;;2.80;99.90;;;;;;6252791;23;20217;-85
2024/01/30 07:17:47;;;;;;;21.23;12.32;;;2.90;99.90;;;;;;6256070;23;20166;-86
2024/01/30 07:20:14;;;;;;;19.73;13.70;;;2.90;99.90;;;;;;6259270;23;20185;-86
2024/01/30 07:22:41;;;;;;;20.27;13.95;;;3.00;99.90;;;;;;6259071;23;20201;-85
2024/01/30 07:25:09;;;;;;;21.70;14.73;;;3.00;74.30;;;;;;6260038;23;20291;-85
2024/01/30 07:27:36;;;;;;;16.42;13.02;;;3.00;67.00;;;;;;6259893;23;20202;-85
2024/01/30 07:30:06;;;;;;;14.57;11.38;;;3.00;47.50;;;;;;6184592;22;20201;-87
2024/01/30 07:32:35;;;;;;;20.02;13.18;;;3.00;52.40;;;;;;6164285;23;20246;-85
2024/01/30 07:35:02;;;;;;;20.45;13.02;;;3.00;28.80;;;;;;6165600;23;20184;-86
2024/01/30 07:37:28;;;;;;;19.48;12.25;;;3.00;54.50;;;;;;6175700;23;20219;-85
2024/01/30 07:39:55;;;;;;;19.63;13.98;;;3.00;99.90;;;;;;6183252;23;20255;-86
2024/01/30 07:42:22;;;;;;;17.60;13.52;;;3.10;59.50;;;;;;6183868;23;20164;-87
2024/01/30 07:44:49;;;;;;;22.15;13.15;;;3.10;49.50;;;;;;6172010;23;20223;-87
2024/01/30 07:47:16;;;;;;;24.13;11.82;;;3.10;29.20;;;;;;6167478;23;20630;-87
2024/01/30 07:49:44;;;;;;;20.15;13.00;;;3.20;1.00;;;;;;6166734;23;20200;-87
2024/01/30 07:52:11;;;;;;;21.85;13.10;;;3.20;17.80;;;;;;6167490;23;20185;-87
2024/01/30 07:54:40;;;;;;;24.80;13.07;;;3.20;1.00;;;;;;6167723;23;20199;-87
2024/01/30 07:57:07;;;;;;;21.00;11.57;;;3.10;32.80;;;;;;6170205;23;20172;-85
2024/01/30 07:59:34;;;;;;;20.55;11.73;;;3.10;29.50;;;;;;6169752;23;20200;-87
2024/01/30 08:02:01;;;;;;;16.98;11.55;;;3.30;1.00;;;;;;6163502;23;20247;-86
2024/01/30 08:04:28;;;;;;;24.77;15.88;;;3.40;1.00;;;;;;6164547;23;20181;-86
2024/01/30 08:06:56;;;;;;;15.65;12.57;;;3.40;1.00;;;;;;6171608;23;20165;-86
2024/01/30 08:09:23;;;;;;;13.38;10.55;;;3.40;1.00;;;;;;6182555;23;20193;-85
2024/01/30 08:11:50;;;;;;;14.80;10.50;;;3.50;1.00;;;;;;6181892;23;20203;-86
2024/01/30 08:14:20;;;;;;;16.92;11.40;;;3.50;1.00;;;;;;6174804;23;20180;-87
2024/01/30 08:16:47;;;;;;;16.58;11.75;;;3.60;1.00;;;;;;6183735;23;20164;-87
2024/01/30 08:19:15;;;;;;;16.75;11.52;;;3.60;1.00;;;;;;6184641;23;20227;-86
2024/01/30 08:21:43;;;;;;;17.10;11.32;;;3.60;1.00;;;;;;6184994;23;20164;-86
2024/01/30 08:24:13;;;;;;;12.30;9.98;;;3.60;1.00;;;;;;6183484;23;20191;-86
2024/01/30 08:26:46;;;;;;;17.65;11.05;;;3.50;1.00;;;;;;6183217;23;20179;-88
2024/01/30 08:29:13;;;;;;;12.52;10.65;;;3.70;1.00;;;;;;6195339;23;20237;-88
2024/01/30 08:31:44;;;;;;;16.75;11.57;;;3.70;1.00;;;;;;6214727;23;20194;-86
2024/01/30 08:34:13;;;;;;;13.15;9.88;;;3.70;1.00;;;;;;6214781;23;20175;-87
2024/01/30 08:36:42;;;;;;;14.05;9.52;;;3.70;1.00;;;;;;6212602;23;20176;-86
2024/01/30 08:39:11;;;;;;;17.45;10.15;;;3.80;1.00;;;;;;6208393;23;20211;-88
2024/01/30 08:41:40;;;;;;;11.98;9.13;;;3.70;1.00;;;;;;6209227;23;20223;-87
2024/01/30 08:44:10;;;;;;;16.75;9.75;;;3.70;1.00;;;;;;6201203;23;20164;-87
2024/01/30 08:46:38;;;;;;;13.50;11.02;;;4.30;1.00;;;;;;6192563;23;20510;-86
2024/01/30 08:49:13;;;;;;;11.52;10.30;;;3.90;1.00;;;;;;6193834;23;20258;-86
2024/01/30 08:51:40;;;;;;;16.85;11.40;;;4.00;1.00;;;;;;6194709;23;20215;-87
2024/01/30 08:54:07;;;;;;;13.65;10.93;;;4.20;1.00;;;;;;6198618;23;20493;-86
2024/01/30 08:56:35;;;;;;;11.82;10.38;;;4.20;1.00;;;;;;6196500;23;20175;-86
2024/01/30 08:59:02;;;;;;;20.02;13.90;;;4.20;1.00;;;;;;6196497;23;20192;-86
2024/01/30 09:01:29;;;;;;;18.50;11.45;;;4.40;1.00;;;;;;6199710;23;20233;-87
2024/01/30 09:03:59;;;;;;;16.90;10.52;;;4.40;1.00;;;;;;6205699;23;20228;-88
2024/01/30 09:06:28;;;;;;;15.30;11.07;;;4.50;1.00;;;;;;6205282;23;20176;-89
2024/01/30 09:08:55;;;;;;;12.95;10.45;;;4.50;1.00;;;;;;6205730;23;20200;-87
2024/01/30 09:11:28;;;;;;;12.90;9.90;;;4.80;1.00;;;;;;6205834;23;20227;-90
2024/01/30 09:13:56;;;;;;;12.77;9.15;;;4.50;1.00;;;;;;6206679;23;20654;-88
2024/01/30 09:16:23;;;;;;;13.18;9.93;;;4.50;1.00;;;;;;6196912;23;20183;-86
2024/01/30 09:18:50;;;;;;;17.48;10.50;;;4.70;1.00;;;;;;6195433;23;20192;-87
2024/01/30 09:21:17;;;;;;;12.23;10.20;;;4.60;1.00;;;;;;6190723;23;20192;-86
2024/01/30 09:23:45;;;;;;;23.48;12.35;;;4.60;1.00;;;;;;6193961;23;20176;-87
2024/01/30 09:26:13;;;;;;;18.27;11.68;;;4.60;1.00;;;;;;6212424;23;20180;-85
2024/01/30 09:28:46;;;;;;;15.60;12.13;;;4.60;1.00;;;;;;6207982;23;20204;-86
2024/01/30 09:31:18;;;;;;;20.05;11.75;;;4.70;1.00;;;;;;6198011;23;20169;-85
2024/01/30 09:33:48;;;;;;;18.35;12.65;;;4.60;1.00;;;;;;6196414;23;20195;-87
2024/01/30 09:36:23;;;;;;;20.38;12.80;;;4.70;1.00;;;;;;6202588;23;20175;-87
2024/01/30 09:38:50;;;;;;;17.30;12.00;;;4.70;1.00;;;;;;6207446;23;20199;-87
2024/01/30 09:41:20;;;;;;;13.23;9.93;;;4.80;1.00;;;;;;6205902;23;20187;-87
2024/01/30 09:43:49;;;;;;;24.13;13.80;;;4.80;1.00;;;;;;6198809;23;20187;-86
2024/01/30 09:46:18;;;;;;;19.55;11.95;;;4.90;1.00;;;;;;6198729;23;20186;-86
2024/01/30 09:48:48;;;;;;;22.00;10.98;;;4.90;1.00;;;;;;6197939;23;20196;-85
2024/01/30 09:51:16;;;;;;;21.17;11.02;;;5.00;1.00;;;;;;6210564;23;20179;-87
2024/01/30 09:53:44;;;;;;;20.00;11.30;;;5.10;1.00;;;;;;6207661;23;20298;-86
2024/01/30 09:56:12;;;;;;;12.85;9.95;;;5.10;1.00;;;;;;6198147;23;20182;-87
2024/01/30 09:58:39;;;;;;;22.15;10.60;;;5.30;1.00;;;;;;6197410;23;20200;-86
2024/01/30 10:04:23;;;;;;;18.85;10.18;;;5.30;1.00;;;;;;6197006;23;20180;-86
2024/01/30 10:06:52;;;;;;;12.45;8.85;;;5.40;1.00;;;;;;6197170;23;20201;-86
2024/01/30 10:09:22;;;;;;;14.50;9.32;;;5.50;1.00;;;;;;6194116;23;20270;-86
2024/01/30 10:11:54;;;;;;;11.38;9.60;;;5.60;1.00;;;;;;6195151;23;20164;-86
2024/01/30 10:14:29;;;;;;;13.57;9.27;;;5.70;1.00;;;;;;6192519;23;20207;-87
2024/01/30 10:17:00;;;;;;;17.13;10.80;;;5.80;1.00;;;;;;6192417;23;20167;-86
2024/01/30 10:19:31;;;;;;;12.27;8.63;;;5.80;1.00;;;;;;6193225;23;20251;-87
2024/01/30 10:21:58;;;;;;;12.18;8.70;;;5.70;1.00;;;;;;6193238;23;20160;-87
2024/01/30 10:24:31;;;;;;;12.43;9.00;;;5.90;1.00;;;;;;6193085;23;20172;-87
2024/01/30 10:26:59;;;;;;;9.23;8.15;;;6.00;1.00;;;;;;6192857;23;20164;-86
2024/01/30 10:29:28;;;;;;;9.95;8.30;;;6.00;1.00;;;;;;6193982;23;20578;-87
2024/01/30 10:32:04;;;;;;;13.63;8.82;;;6.10;1.00;;;;;;6196548;23;20172;-87
2024/01/30 10:34:35;;;;;;;9.32;8.02;;;6.20;1.00;;;;;;6196872;23;20476;-87
2024/01/30 10:40:06;;;;;;;11.98;8.77;;;6.50;1.00;;;;;;6196067;23;20247;-86
2024/01/30 10:42:56;;;;;;;10.88;8.45;;;6.20;1.00;;;;;;6194279;23;20156;-87
2024/01/30 10:45:24;;;;;;;15.80;8.85;;;6.30;1.00;;;;;;6186099;23;20203;-87
2024/01/30 10:48:16;;;;;;;8.88;7.50;;;6.30;1.00;;;;;;6198261;23;20262;-88
2024/01/30 10:51:24;;;;;;;11.32;8.68;;;6.40;1.00;;;;;;6192923;23;20214;-87
2024/01/30 10:54:03;;;;;;;9.60;7.18;;;6.40;1.00;;;;;;6188078;23;20238;-86
2024/01/30 10:56:38;;;;;;;10.43;7.75;;;6.50;1.00;;;;;;6192618;23;20176;-86
2024/01/30 10:59:18;;;;;;;11.35;9.20;;;6.50;1.00;;;;;;6213413;23;20239;-87
2024/01/30 11:04:46;;;;;;;9.45;7.30;;;6.60;1.00;;;;;;6206923;23;20168;-87
2024/01/30 11:07:39;;;;;;;9.00;6.80;;;6.60;1.00;;;;;;6205157;23;20167;-87
2024/01/30 11:10:29;;;;;;;10.20;6.93;;;6.60;1.00;;;;;;6207047;23;20442;-87
2024/01/30 11:13:18;;;;;;;16.27;7.55;;;6.70;1.00;;;;;;6202160;23;20196;-87
2024/01/30 11:15:54;;;;;;;14.07;8.27;;;6.70;1.00;;;;;;6200319;23;20199;-87
2024/01/30 11:18:31;;;;;;;10.05;7.75;;;6.80;1.00;;;;;;6203183;23;20198;-88
2024/01/30 11:21:03;;;;;;;10.48;8.02;;;6.70;1.00;;;;;;6197074;23;20543;-87
2024/01/30 11:23:41;;;;;;;11.82;10.52;;;6.70;1.00;;;;;;6195779;23;20178;-87
2024/01/30 11:26:16;;;;;;;9.20;7.90;;;6.90;1.00;;;;;;6198365;23;20171;-87
2024/01/30 11:31:52;;;;;;;10.02;7.20;;;6.80;1.00;;;;;;6192198;23;20234;-87
2024/01/30 11:34:31;;;;;;;11.55;9.18;;;6.80;1.00;;;;;;6202418;23;20283;-87
2024/01/30 11:37:13;;;;;;;13.02;8.23;;;6.80;1.00;;;;;;6199295;23;20159;-87
2024/01/30 11:40:09;;;;;;;11.30;8.95;;;6.80;1.00;;;;;;6211049;23;20312;-88
2024/01/30 11:42:46;;;;;;;12.45;8.88;;;7.00;1.00;;;;;;6187951;23;20184;-88
2024/01/30 11:45:29;;;;;;;14.07;8.87;;;6.90;1.00;;;;;;6211347;23;20223;-87
2024/01/30 11:51:26;;;;;;;12.52;9.18;;;7.00;99.90;;;;;;6192949;23;20176;-87
2024/01/30 11:54:03;;;;;;;13.18;8.90;;;7.10;1.00;;;;;;6191921;23;20188;-87
2024/01/30 11:56:58;;;;;;;13.90;8.73;;;7.20;1.00;;;;;;6193750;23;20176;-87
2024/01/30 12:02:20;;;;;;;9.30;8.30;;;7.40;1.00;;;;;;6143312;23;20890;-88
2024/01/30 12:05:09;;;;;;;14.00;8.53;;;7.50;99.90;;;;;;6165252;23;20406;-87
2024/01/30 12:07:49;;;;;;;15.07;8.80;;;7.60;1.00;;;;;;6193020;23;20419;-88
2024/01/30 12:10:42;;;;;;;11.43;8.90;;;7.60;1.00;;;;;;6190999;23;20438;-87
2024/01/30 12:13:45;;;;;;;12.33;9.00;;;7.70;1.00;;;;;;6191253;23;20438;-87
2024/01/30 12:16:20;;;;;;;11.40;9.07;;;7.60;99.90;;;;;;6192423;23;20426;-86
2024/01/30 12:18:52;;;;;;;10.53;8.90;;;7.70;99.90;;;;;;6191633;23;20410;-86
2024/01/30 12:21:25;;;;;;;10.67;8.43;;;7.60;99.90;;;;;;6192112;23;20411;-87
2024/01/30 12:24:11;;;;;;;11.53;8.37;;;7.90;99.90;;;;;;6192315;23;20411;-87
2024/01/30 12:26:55;;;;;;;14.50;8.43;;;7.80;1.00;;;;;;6192937;23;20534;-87
2024/01/30 12:29:39;;;;;;;12.57;9.10;;;7.80;1.00;;;;;;6192739;23;20438;-87
2024/01/30 12:32:15;;;;;;;12.93;8.73;;;7.80;1.00;;;;;;6208796;23;20411;-87
2024/01/30 12:34:43;;;;;;;13.23;8.60;;;7.80;1.00;;;;;;6211144;23;20419;-87
2024/01/30 12:37:22;;;;;;;12.57;9.10;;;7.80;1.00;;;;;;6212581;23;20847;-87
2024/01/30 12:40:18;;;;;;;11.77;8.10;;;7.70;1.00;;;;;;6213651;23;20396;-87
2024/01/30 12:43:10;;;;;;;13.90;8.13;;;7.70;1.00;;;;;;6206711;23;20386;-90
2024/01/30 12:45:43;;;;;;;13.03;10.10;;;7.70;1.00;;;;;;6077079;23;20418;-89
2024/01/30 12:48:11;;;;;;;11.63;8.27;;;7.70;1.00;;;;;;6178818;23;20393;-88
2024/01/30 12:50:38;;;;;;;10.73;8.40;;;7.50;1.00;;;;;;6200876;23;20411;-89
2024/01/30 12:53:05;;;;;;;10.87;8.67;;;7.70;1.00;;;;;;6210422;23;20414;-86
2024/01/30 12:55:33;;;;;;;9.30;8.10;;;8.00;1.00;;;;;;6208195;23;20390;-86
2024/01/30 12:58:02;;;;;;;10.27;8.83;;;7.70;1.00;;;;;;6194315;23;20499;-86
2024/01/30 13:00:31;;;;;;;8.63;7.00;;;7.80;1.00;;;;;;6199074;23;20718;-88
2024/01/30 13:02:58;;;;;;;10.87;7.63;;;7.80;1.00;;;;;;6193223;23;20411;-87
2024/01/30 13:05:31;;;;;;;12.40;9.73;;;7.80;1.00;;;;;;6192370;23;20494;-87
2024/01/30 13:08:03;;;;;;;12.90;9.17;;;7.90;1.00;;;;;;6191965;23;20366;-88
2024/01/30 13:10:36;;;;;;;14.10;9.03;;;7.80;1.00;;;;;;6193092;23;20394;-87
2024/01/30 13:13:05;;;;;;;12.40;10.70;;;7.80;1.00;;;;;;6194426;23;20505;-87
2024/01/30 13:15:38;;;;;;;15.10;8.50;;;7.80;1.00;;;;;;6192747;23;20468;-87
2024/01/30 13:18:10;;;;;;;10.27;7.70;;;7.90;1.00;;;;;;6193054;23;20462;-88
2024/01/30 13:20:38;;;;;;;12.03;8.80;;;7.90;1.00;;;;;;6193183;23;20481;-87
2024/01/30 13:23:11;;;;;;;9.63;8.63;;;8.10;1.00;;;;;;6194638;23;20436;-87